Terminal Aerodrome Forecast
Issued by NWS Charleston, SC

Home | Current Version | Previous Version | Text Only | Print | Product List | Glossary On
Versions: 1 2 3 4 5 6 7 8 9 10 11 12 13 14 15 16 17 18
000
FTUS42 KCHS 010536
TAFCHS
TAF
KCHS 010536Z 0106/0206 03011KT P6SM -RA OVC015 WS020/11038KT
     FM011100 03009KT 6SM -RA BR OVC008
     FM011700 VRB06KT 5SM -DZ BR OVC006
     FM020000 35004KT 3SM BR OVC003=

USA.gov is the U.S. government's official web portal to all federal, state and local government web resources and services.